createdAt,value
2023-09-27T00:00:28.703Z,98209.41
2023-09-27T00:05:30.176Z,98206.47
2023-09-27T00:10:31.629Z,98201.84
2023-09-27T00:15:32.922Z,98203.78
2023-09-27T00:20:34.188Z,98204.19
2023-09-27T00:25:35.424Z,98200.56
2023-09-27T00:30:36.712Z,98200.47
2023-09-27T00:35:37.986Z,98213.56
2023-09-27T00:40:39.208Z,98207.31
2023-09-27T00:45:40.419Z,98209.25
2023-09-27T00:50:41.731Z,98204.66
2023-09-27T00:55:43.130Z,98193.22
2023-09-27T01:00:44.394Z,98189.94
2023-09-27T01:05:45.805Z,98189.19
2023-09-27T01:10:47.156Z,98176.94
2023-09-27T01:15:48.521Z,98188.66
2023-09-27T01:20:49.762Z,98196.78
2023-09-27T01:25:51.037Z,98190.28
2023-09-27T01:30:52.322Z,98185.81
2023-09-27T01:35:55.227Z,98179.50
2023-09-27T01:40:56.621Z,98180.31
2023-09-27T01:45:57.948Z,98181.44
2023-09-27T01:50:59.264Z,98169.03
2023-09-27T01:56:00.646Z,98181.34
2023-09-27T02:01:01.974Z,98182.00
2023-09-27T02:06:03.275Z,98183.41
2023-09-27T02:11:04.704Z,98184.72
2023-09-27T02:16:06.039Z,98181.22
2023-09-27T02:21:07.612Z,98179.53
2023-09-27T02:26:10.580Z,98173.97
2023-09-27T02:31:11.993Z,98164.97
2023-09-27T02:36:13.315Z,98180.06
2023-09-27T02:41:14.832Z,98176.91
2023-09-27T02:46:16.154Z,98173.06
2023-09-27T02:51:17.434Z,98181.25
2023-09-27T02:56:18.897Z,98180.28
2023-09-27T03:01:20.262Z,98193.63
2023-09-27T03:06:21.633Z,98194.63
2023-09-27T03:11:22.984Z,98191.66
2023-09-27T03:16:24.775Z,98198.78
2023-09-27T03:21:27.624Z,98193.72
2023-09-27T03:26:28.931Z,98200.88
2023-09-27T03:31:31.403Z,98212.66
2023-09-27T03:36:32.768Z,98227.59
2023-09-27T03:41:34.049Z,98230.13
2023-09-27T03:46:35.436Z,98228.22
2023-09-27T03:51:36.768Z,98219.50
2023-09-27T03:56:38.045Z,98228.25
2023-09-27T04:01:39.334Z,98223.97
2023-09-27T04:06:40.651Z,98218.06
2023-09-27T04:11:42.006Z,98222.44
2023-09-27T04:16:43.347Z,98220.44
2023-09-27T04:21:44.672Z,98227.47
2023-09-27T04:26:45.964Z,98234.38
2023-09-27T04:31:47.271Z,98239.47
2023-09-27T04:36:48.513Z,98240.94
2023-09-27T04:41:49.852Z,98254.50
2023-09-27T04:46:51.581Z,98264.31
2023-09-27T04:51:52.981Z,98268.00
2023-09-27T04:56:54.320Z,98267.91
2023-09-27T05:01:55.700Z,98267.31
2023-09-27T05:06:56.961Z,98274.38
2023-09-27T05:11:58.194Z,98273.13
2023-09-27T05:16:59.522Z,98288.75
2023-09-27T05:22:00.829Z,98278.66
2023-09-27T05:27:04.643Z,98283.53
2023-09-27T05:32:06.011Z,98282.09
2023-09-27T05:37:07.364Z,98296.59
2023-09-27T05:42:08.626Z,98295.91
2023-09-27T05:47:11.011Z,98311.72
2023-09-27T05:52:13.753Z,98306.88
2023-09-27T05:57:15.358Z,98313.88
2023-09-27T06:02:21.344Z,98315.53
2023-09-27T06:07:23.969Z,98320.34
2023-09-27T06:12:26.362Z,98330.09
2023-09-27T06:17:28.441Z,98337.13
2023-09-27T06:22:29.915Z,98330.06
2023-09-27T06:27:31.168Z,98334.25
2023-09-27T06:32:32.675Z,98320.75
2023-09-27T06:37:34.028Z,98320.06
2023-09-27T06:42:35.293Z,98316.91
2023-09-27T06:47:37.996Z,98312.19
2023-09-27T06:52:41.159Z,98327.25
2023-09-27T06:57:42.704Z,98321.38
2023-09-27T07:02:45.340Z,98345.09
2023-09-27T07:07:48.251Z,98350.94
2023-09-27T07:12:49.541Z,98346.72
2023-09-27T07:17:51.530Z,98358.00
2023-09-27T07:22:53.041Z,98370.94
2023-09-27T07:27:56.328Z,98368.94
2023-09-27T07:32:58.179Z,98369.47
2023-09-27T07:37:59.707Z,98367.06
2023-09-27T07:43:00.932Z,98371.91
2023-09-27T07:48:02.361Z,98375.91
2023-09-27T07:53:05.024Z,98379.59
2023-09-27T07:58:06.573Z,98376.16
2023-09-27T08:03:09.228Z,98375.44
2023-09-27T08:08:11.265Z,98375.75
2023-09-27T08:13:12.652Z,98385.22
2023-09-27T08:18:13.956Z,98387.91
2023-09-27T08:23:15.359Z,98384.78
2023-09-27T08:28:17.583Z,98385.19
2023-09-27T08:33:18.940Z,98383.66
2023-09-27T08:38:20.256Z,98390.09
2023-09-27T08:43:22.970Z,98389.47
2023-09-27T08:48:25.482Z,98379.69
2023-09-27T08:53:26.904Z,98366.69
2023-09-27T08:58:29.100Z,98377.47
2023-09-27T09:03:31.447Z,98359.66
2023-09-27T09:08:54.629Z,98351.13
2023-09-27T09:13:54.348Z,98353.63
2023-09-27T09:18:56.654Z,98350.72
2023-09-27T09:23:58.313Z,98360.41
2023-09-27T09:29:03.724Z,98354.84
2023-09-27T09:34:05.588Z,98347.91
2023-09-27T09:39:07.043Z,98348.16
2023-09-27T09:44:08.392Z,98343.25
2023-09-27T09:49:09.746Z,98337.09
2023-09-27T09:54:10.991Z,98340.56
2023-09-27T09:59:14.372Z,98334.03
2023-09-27T10:04:16.759Z,98331.59
2023-09-27T10:09:18.175Z,98331.06
2023-09-27T10:14:19.892Z,98319.19
2023-09-27T10:24:36.462Z,98276.97
2023-09-27T10:29:37.795Z,98267.63
2023-09-27T10:34:39.096Z,98253.84
2023-09-27T10:39:41.202Z,98249.53
2023-09-27T10:44:44.811Z,98247.97
2023-09-27T10:49:46.240Z,98232.56
2023-09-27T10:54:47.883Z,98220.53
2023-09-27T10:59:51.720Z,98204.06
2023-09-27T11:04:52.986Z,98192.09
2023-09-27T11:09:55.129Z,98184.47
2023-09-27T11:14:57.410Z,98182.38
2023-09-27T11:19:58.857Z,98184.22
2023-09-27T11:25:00.585Z,98172.53
2023-09-27T11:30:01.876Z,98165.47
2023-09-27T11:35:05.319Z,98155.44
2023-09-27T11:40:07.185Z,98155.41
2023-09-27T11:45:13.887Z,98138.53
2023-09-27T11:50:15.151Z,98124.75
2023-09-27T11:55:16.410Z,98115.63
2023-09-27T12:00:17.785Z,98110.84
2023-09-27T12:05:19.723Z,98101.13
2023-09-27T12:10:21.150Z,98093.44
2023-09-27T12:15:22.420Z,98090.75
2023-09-27T12:20:38.520Z,98082.72
2023-09-27T12:25:43.337Z,98070.78
2023-09-27T12:30:44.732Z,98062.59
2023-09-27T12:35:47.873Z,98056.97
2023-09-27T12:40:49.270Z,98046.34
2023-09-27T12:45:50.579Z,98042.38
2023-09-27T12:50:51.882Z,98037.25
2023-09-27T12:55:53.194Z,98027.84
2023-09-27T13:00:54.476Z,98022.00
2023-09-27T13:05:56.005Z,98019.53
2023-09-27T13:10:57.414Z,98006.94
2023-09-27T13:15:58.822Z,98003.13
2023-09-27T13:21:00.537Z,97989.94
2023-09-27T13:26:01.793Z,97978.94
2023-09-27T13:31:03.650Z,97968.75
2023-09-27T13:36:05.549Z,97962.13
2023-09-27T13:41:07.410Z,97952.81
2023-09-27T13:46:08.824Z,97954.75
2023-09-27T13:51:10.223Z,97955.44
2023-09-27T13:56:11.481Z,97944.09
2023-09-27T14:01:12.795Z,97932.41
2023-09-27T14:06:14.171Z,97932.53
2023-09-27T14:11:15.538Z,97922.44
2023-09-27T14:16:20.182Z,97921.88
2023-09-27T14:21:21.595Z,97920.09
2023-09-27T14:26:22.964Z,97913.94
2023-09-27T14:31:29.123Z,97912.63
2023-09-27T14:36:30.669Z,97905.31
2023-09-27T14:41:33.152Z,97904.81
2023-09-27T14:46:35.028Z,97899.75
2023-09-27T14:51:36.419Z,97890.66
2023-09-27T14:56:37.654Z,97890.50
2023-09-27T15:01:39.569Z,97886.81
2023-09-27T15:06:41.107Z,97883.50
2023-09-27T15:11:43.352Z,97879.81
2023-09-27T15:16:44.710Z,97876.78
2023-09-27T15:21:48.311Z,97871.97
2023-09-27T15:26:49.539Z,97869.13
2023-09-27T15:31:50.902Z,97867.47
2023-09-27T15:36:52.625Z,97869.16
2023-09-27T15:41:54.638Z,97866.72
2023-09-27T15:46:55.945Z,97863.13
2023-09-27T15:51:57.546Z,97866.09
2023-09-27T15:56:58.757Z,97874.56
2023-09-27T16:01:59.991Z,97871.75
2023-09-27T16:07:01.258Z,97884.28
2023-09-27T16:12:02.950Z,97877.72
2023-09-27T16:17:04.249Z,97873.28
2023-09-27T16:22:05.490Z,97872.53
2023-09-27T16:27:06.854Z,97875.59
2023-09-27T16:32:08.154Z,97876.19
2023-09-27T16:37:10.047Z,97878.03
2023-09-27T16:42:11.325Z,97872.66
2023-09-27T16:47:12.746Z,97878.28
2023-09-27T16:52:15.423Z,97879.03
2023-09-27T16:57:16.732Z,97884.25
2023-09-27T17:02:18.162Z,97879.09
2023-09-27T17:07:19.508Z,97891.88
2023-09-27T17:12:20.750Z,97894.63
2023-09-27T17:17:22.011Z,97906.69
2023-09-27T17:22:23.407Z,97919.38
2023-09-27T17:27:24.679Z,97920.66
2023-09-27T17:32:26.018Z,97916.53
2023-09-27T17:37:27.379Z,97916.59
2023-09-27T17:42:28.676Z,97913.63
2023-09-27T17:47:30.024Z,97924.38
2023-09-27T17:52:31.306Z,97913.50
2023-09-27T17:57:32.849Z,97924.19
2023-09-27T18:02:34.757Z,97920.25
2023-09-27T18:07:36.250Z,97923.50
2023-09-27T18:12:37.483Z,97918.00
2023-09-27T18:17:38.770Z,97928.06
2023-09-27T18:22:40.152Z,97929.63
2023-09-27T18:27:41.454Z,97928.81
2023-09-27T18:32:42.756Z,97929.66
2023-09-27T18:37:44.072Z,97928.28
2023-09-27T18:42:45.284Z,97933.06
2023-09-27T18:47:48.768Z,97933.53
2023-09-27T18:52:51.777Z,97927.06
2023-09-27T18:57:53.213Z,97924.94
2023-09-27T19:02:54.454Z,97923.06
2023-09-27T19:07:55.754Z,97925.47
2023-09-27T19:12:57.012Z,97923.66
2023-09-27T19:17:58.513Z,97927.47
2023-09-27T19:22:59.932Z,97920.50
2023-09-27T19:28:02.081Z,97914.75
2023-09-27T19:33:03.724Z,97929.44
2023-09-27T19:38:05.080Z,97929.31
2023-09-27T19:43:06.398Z,97923.34
2023-09-27T19:48:07.649Z,97917.44
2023-09-27T19:53:08.975Z,97913.31
2023-09-27T19:58:10.254Z,97918.09
2023-09-27T20:03:12.027Z,97911.56
2023-09-27T20:08:13.286Z,97911.34
2023-09-27T20:13:14.578Z,97915.19
2023-09-27T20:18:15.780Z,97912.22
2023-09-27T20:23:17.785Z,97914.91
2023-09-27T20:28:19.298Z,97918.16
2023-09-27T20:33:20.539Z,97923.34
2023-09-27T20:38:21.873Z,97914.13
2023-09-27T20:43:23.176Z,97919.16
2023-09-27T20:48:24.533Z,97913.69
2023-09-27T20:53:25.750Z,97920.34
2023-09-27T20:58:26.986Z,97913.59
2023-09-27T21:03:28.427Z,97914.72
2023-09-27T21:08:29.681Z,97910.75
2023-09-27T21:13:30.942Z,97911.78
2023-09-27T21:18:32.445Z,97910.34
2023-09-27T21:23:35.295Z,97894.69
2023-09-27T21:28:36.645Z,97892.16
2023-09-27T21:33:37.935Z,97892.44
2023-09-27T21:38:39.927Z,97896.03
2023-09-27T21:43:41.407Z,97900.72
2023-09-27T21:48:42.681Z,97903.56
2023-09-27T21:53:43.964Z,97899.41
2023-09-27T21:58:45.314Z,97888.63
2023-09-27T22:03:46.568Z,97886.69
2023-09-27T22:08:53.370Z,97886.72
2023-09-27T22:13:55.540Z,97876.16
2023-09-27T22:19:01.504Z,97881.94
2023-09-27T22:24:13.092Z,97867.88
2023-09-27T22:29:15.389Z,97865.13
2023-09-27T22:34:26.063Z,97868.09
2023-09-27T22:39:29.705Z,97856.75
2023-09-27T22:44:33.865Z,97853.31
2023-09-27T22:49:35.832Z,97859.41
2023-09-27T22:54:39.433Z,97860.53
2023-09-27T22:59:40.778Z,97858.41
2023-09-27T23:04:42.359Z,97860.00
2023-09-27T23:09:43.783Z,97860.53
2023-09-27T23:15:03.938Z,97863.56
2023-09-27T23:20:06.068Z,97864.84
2023-09-27T23:25:26.180Z,97875.59
2023-09-27T23:30:27.419Z,97876.06
2023-09-27T23:35:31.162Z,97874.09
2023-09-27T23:40:33.248Z,97876.53
2023-09-27T23:45:37.521Z,97879.09
2023-09-27T23:50:38.775Z,97886.69
2023-09-27T23:55:43.579Z,97886.03
